sensor_id;sensor_type;location;lat;lon;timestamp;temperature;humidity
28725;DHT22;43472;48.980;9.646;2022-08-02T00:04:49;19.50;99.90
28725;DHT22;43472;48.980;9.646;2022-08-02T00:09:50;19.60;99.90
28725;DHT22;43472;48.980;9.646;2022-08-02T00:14:53;19.20;99.90
28725;DHT22;43472;48.980;9.646;2022-08-02T00:19:55;19.30;99.90
28725;DHT22;43472;48.980;9.646;2022-08-02T00:24:57;19.40;99.90
28725;DHT22;43472;48.980;9.646;2022-08-02T00:29:58;19.10;99.90
28725;DHT22;43472;48.980;9.646;2022-08-02T00:45:06;18.80;99.90
28725;DHT22;43472;48.980;9.646;2022-08-02T00:55:10;19.00;99.90
28725;DHT22;43472;48.980;9.646;2022-08-02T01:00:13;19.00;99.90
28725;DHT22;43472;48.980;9.646;2022-08-02T01:10:17;18.30;99.90
28725;DHT22;43472;48.980;9.646;2022-08-02T01:15:19;17.90;99.90
28725;DHT22;43472;48.980;9.646;2022-08-02T01:20:53;18.10;99.90
28725;DHT22;43472;48.980;9.646;2022-08-02T01:36:31;18.00;99.90
28725;DHT22;43472;48.980;9.646;2022-08-02T01:52:09;18.00;99.90
28725;DHT22;43472;48.980;9.646;2022-08-02T01:57:25;18.20;99.90
28725;DHT22;43472;48.980;9.646;2022-08-02T02:02:28;17.70;99.90
28725;DHT22;43472;48.980;9.646;2022-08-02T02:07:34;17.50;99.90
28725;DHT22;43472;48.980;9.646;2022-08-02T02:12:38;17.40;99.90
28725;DHT22;43472;48.980;9.646;2022-08-02T02:28:28;17.40;99.90
28725;DHT22;43472;48.980;9.646;2022-08-02T02:59:12;17.00;99.90
28725;DHT22;43472;48.980;9.646;2022-08-02T03:04:16;17.00;99.90
28725;DHT22;43472;48.980;9.646;2022-08-02T03:24:33;17.20;99.90
28725;DHT22;43472;48.980;9.646;2022-08-02T03:34:37;17.00;99.90
28725;DHT22;43472;48.980;9.646;2022-08-02T03:44:52;16.80;99.90
28725;DHT22;43472;48.980;9.646;2022-08-02T04:10:04;16.80;99.90
28725;DHT22;43472;48.980;9.646;2022-08-02T04:15:08;16.70;99.90
28725;DHT22;43472;48.980;9.646;2022-08-02T04:20:20;15.80;99.90
28725;DHT22;43472;48.980;9.646;2022-08-02T04:25:25;16.30;99.90
28725;DHT22;43472;48.980;9.646;2022-08-02T04:30:41;16.30;99.90
28725;DHT22;43472;48.980;9.646;2022-08-02T04:35:43;16.80;99.90
28725;DHT22;43472;48.980;9.646;2022-08-02T04:40:52;16.80;99.90
28725;DHT22;43472;48.980;9.646;2022-08-02T04:45:54;16.70;99.90
28725;DHT22;43472;48.980;9.646;2022-08-02T05:11:21;17.00;99.90
28725;DHT22;43472;48.980;9.646;2022-08-02T05:36:46;17.30;99.90
28725;DHT22;43472;48.980;9.646;2022-08-02T05:41:48;18.10;99.90
28725;DHT22;43472;48.980;9.646;2022-08-02T05:46:50;18.00;99.90
28725;DHT22;43472;48.980;9.646;2022-08-02T05:52:05;18.20;99.90
28725;DHT22;43472;48.980;9.646;2022-08-02T06:07:57;18.60;99.90
28725;DHT22;43472;48.980;9.646;2022-08-02T06:13:13;18.60;99.90
28725;DHT22;43472;48.980;9.646;2022-08-02T06:18:18;18.80;99.90
28725;DHT22;43472;48.980;9.646;2022-08-02T06:23:29;19.30;99.90
28725;DHT22;43472;48.980;9.646;2022-08-02T06:28:38;19.40;99.90
28725;DHT22;43472;48.980;9.646;2022-08-02T06:33:40;19.80;99.90
28725;DHT22;43472;48.980;9.646;2022-08-02T06:38:45;19.80;99.90
28725;DHT22;43472;48.980;9.646;2022-08-02T06:54:08;20.20;99.90
28725;DHT22;43472;48.980;9.646;2022-08-02T07:04:12;20.20;99.90
28725;DHT22;43472;48.980;9.646;2022-08-02T07:14:22;20.50;99.90
28725;DHT22;43472;48.980;9.646;2022-08-02T07:24:38;20.70;99.90
28725;DHT22;43472;48.980;9.646;2022-08-02T07:29:41;20.70;99.90
28725;DHT22;43472;48.980;9.646;2022-08-02T07:34:48;21.20;99.90
28725;DHT22;43472;48.980;9.646;2022-08-02T07:39:53;21.50;99.90
28725;DHT22;43472;48.980;9.646;2022-08-02T07:44:56;21.70;99.90
28725;DHT22;43472;48.980;9.646;2022-08-02T07:55:12;22.30;99.90
28725;DHT22;43472;48.980;9.646;2022-08-02T08:15:23;22.70;99.90
28725;DHT22;43472;48.980;9.646;2022-08-02T08:20:25;22.70;99.90
28725;DHT22;43472;48.980;9.646;2022-08-02T08:25:26;23.20;99.90
28725;DHT22;43472;48.980;9.646;2022-08-02T08:30:29;23.20;99.90
28725;DHT22;43472;48.980;9.646;2022-08-02T08:45:42;23.50;99.90
28725;DHT22;43472;48.980;9.646;2022-08-02T08:51:09;24.00;99.90
28725;DHT22;43472;48.980;9.646;2022-08-02T08:56:12;23.90;99.90
28725;DHT22;43472;48.980;9.646;2022-08-02T09:01:17;24.10;99.90
28725;DHT22;43472;48.980;9.646;2022-08-02T09:06:19;23.90;99.90
28725;DHT22;43472;48.980;9.646;2022-08-02T09:11:24;24.00;99.90
28725;DHT22;43472;48.980;9.646;2022-08-02T09:16:52;23.90;99.90
28725;DHT22;43472;48.980;9.646;2022-08-02T09:22:04;25.00;99.90
28725;DHT22;43472;48.980;9.646;2022-08-02T09:27:13;25.00;99.90
28725;DHT22;43472;48.980;9.646;2022-08-02T09:32:15;24.60;99.90
28725;DHT22;43472;48.980;9.646;2022-08-02T09:37:27;24.90;99.90
28725;DHT22;43472;48.980;9.646;2022-08-02T09:42:29;24.70;99.90
28725;DHT22;43472;48.980;9.646;2022-08-02T09:52:38;24.20;99.90
28725;DHT22;43472;48.980;9.646;2022-08-02T10:03:08;24.60;99.90
28725;DHT22;43472;48.980;9.646;2022-08-02T10:08:22;24.60;99.90
28725;DHT22;43472;48.980;9.646;2022-08-02T10:13:32;24.40;99.90
28725;DHT22;43472;48.980;9.646;2022-08-02T10:23:42;25.70;99.90
28725;DHT22;43472;48.980;9.646;2022-08-02T10:28:48;25.70;99.90
28725;DHT22;43472;48.980;9.646;2022-08-02T10:33:51;25.00;99.90
28725;DHT22;43472;48.980;9.646;2022-08-02T10:38:55;25.20;99.90
28725;DHT22;43472;48.980;9.646;2022-08-02T10:44:05;25.10;99.90
28725;DHT22;43472;48.980;9.646;2022-08-02T10:49:25;26.10;99.90
28725;DHT22;43472;48.980;9.646;2022-08-02T10:54:52;25.00;99.90
28725;DHT22;43472;48.980;9.646;2022-08-02T11:10:44;25.90;99.90
28725;DHT22;43472;48.980;9.646;2022-08-02T11:15:59;25.10;99.90
28725;DHT22;43472;48.980;9.646;2022-08-02T11:21:21;26.10;99.90
28725;DHT22;43472;48.980;9.646;2022-08-02T11:31:42;26.30;99.90
28725;DHT22;43472;48.980;9.646;2022-08-02T11:36:49;26.90;99.90
28725;DHT22;43472;48.980;9.646;2022-08-02T11:41:53;25.80;99.90
28725;DHT22;43472;48.980;9.646;2022-08-02T11:47:00;26.60;99.90
28725;DHT22;43472;48.980;9.646;2022-08-02T11:52:04;25.70;99.90
28725;DHT22;43472;48.980;9.646;2022-08-02T11:57:19;26.70;99.90
28725;DHT22;43472;48.980;9.646;2022-08-02T12:02:27;25.60;99.90
28725;DHT22;43472;48.980;9.646;2022-08-02T12:07:35;25.60;99.90
28725;DHT22;43472;48.980;9.646;2022-08-02T12:17:49;26.00;99.90
28725;DHT22;43472;48.980;9.646;2022-08-02T12:23:09;26.70;99.30
28725;DHT22;43472;48.980;9.646;2022-08-02T12:28:19;26.00;99.90
28725;DHT22;43472;48.980;9.646;2022-08-02T12:33:25;27.40;98.80
28725;DHT22;43472;48.980;9.646;2022-08-02T12:38:27;26.90;98.80
28725;DHT22;43472;48.980;9.646;2022-08-02T12:43:29;26.70;99.20
28725;DHT22;43472;48.980;9.646;2022-08-02T12:48:35;26.70;98.30
28725;DHT22;43472;48.980;9.646;2022-08-02T12:53:39;25.70;99.50
28725;DHT22;43472;48.980;9.646;2022-08-02T12:58:51;25.20;99.90
28725;DHT22;43472;48.980;9.646;2022-08-02T13:03:53;25.10;99.90
28725;DHT22;43472;48.980;9.646;2022-08-02T13:09:14;24.80;99.90
28725;DHT22;43472;48.980;9.646;2022-08-02T13:14:16;26.10;98.80
28725;DHT22;43472;48.980;9.646;2022-08-02T13:19:18;24.70;99.90
28725;DHT22;43472;48.980;9.646;2022-08-02T13:24:20;24.80;99.90
28725;DHT22;43472;48.980;9.646;2022-08-02T13:29:40;24.90;99.90
28725;DHT22;43472;48.980;9.646;2022-08-02T13:34:42;25.60;99.00
28725;DHT22;43472;48.980;9.646;2022-08-02T13:39:44;24.90;99.90
28725;DHT22;43472;48.980;9.646;2022-08-02T13:45:06;24.20;99.90
28725;DHT22;43472;48.980;9.646;2022-08-02T13:50:15;24.20;99.90
28725;DHT22;43472;48.980;9.646;2022-08-02T13:55:17;24.90;99.90
28725;DHT22;43472;48.980;9.646;2022-08-02T14:00:20;24.50;99.90
28725;DHT22;43472;48.980;9.646;2022-08-02T14:05:38;25.30;98.80
28725;DHT22;43472;48.980;9.646;2022-08-02T14:10:49;26.20;98.10
28725;DHT22;43472;48.980;9.646;2022-08-02T14:15:52;26.90;96.50
28725;DHT22;43472;48.980;9.646;2022-08-02T14:20:53;26.50;96.00
28725;DHT22;43472;48.980;9.646;2022-08-02T14:25:56;24.80;99.70
28725;DHT22;43472;48.980;9.646;2022-08-02T14:30:58;25.30;98.30
28725;DHT22;43472;48.980;9.646;2022-08-02T14:35:59;24.10;99.90
28725;DHT22;43472;48.980;9.646;2022-08-02T14:41:01;23.70;99.90
28725;DHT22;43472;48.980;9.646;2022-08-02T14:46:03;24.90;99.00
28725;DHT22;43472;48.980;9.646;2022-08-02T14:51:05;25.90;98.10
28725;DHT22;43472;48.980;9.646;2022-08-02T14:56:07;25.30;99.00
28725;DHT22;43472;48.980;9.646;2022-08-02T15:01:09;25.40;98.50
28725;DHT22;43472;48.980;9.646;2022-08-02T15:06:14;25.70;98.40
28725;DHT22;43472;48.980;9.646;2022-08-02T15:11:16;24.80;99.10
28725;DHT22;43472;48.980;9.646;2022-08-02T15:16:18;25.20;99.40
28725;DHT22;43472;48.980;9.646;2022-08-02T15:21:20;27.50;94.50
28725;DHT22;43472;48.980;9.646;2022-08-02T15:26:41;27.00;95.30
28725;DHT22;43472;48.980;9.646;2022-08-02T15:31:43;27.30;94.70
28725;DHT22;43472;48.980;9.646;2022-08-02T15:36:45;27.20;94.70
28725;DHT22;43472;48.980;9.646;2022-08-02T15:41:47;26.90;95.80
28725;DHT22;43472;48.980;9.646;2022-08-02T15:46:49;25.70;97.30
28725;DHT22;43472;48.980;9.646;2022-08-02T15:51:53;27.50;94.60
28725;DHT22;43472;48.980;9.646;2022-08-02T15:56:55;27.80;92.80
28725;DHT22;43472;48.980;9.646;2022-08-02T16:01:56;26.20;95.70
28725;DHT22;43472;48.980;9.646;2022-08-02T16:06:58;26.30;94.90
28725;DHT22;43472;48.980;9.646;2022-08-02T16:12:02;27.60;93.50
28725;DHT22;43472;48.980;9.646;2022-08-02T16:17:04;27.50;92.90
28725;DHT22;43472;48.980;9.646;2022-08-02T16:22:06;27.10;94.10
28725;DHT22;43472;48.980;9.646;2022-08-02T16:27:11;25.20;97.20
28725;DHT22;43472;48.980;9.646;2022-08-02T16:32:13;26.00;95.80
28725;DHT22;43472;48.980;9.646;2022-08-02T16:37:18;26.00;95.70
28725;DHT22;43472;48.980;9.646;2022-08-02T16:42:20;26.80;93.60
28725;DHT22;43472;48.980;9.646;2022-08-02T16:47:26;27.10;93.30
28725;DHT22;43472;48.980;9.646;2022-08-02T16:52:44;26.50;94.20
28725;DHT22;43472;48.980;9.646;2022-08-02T16:57:46;25.40;95.70
28725;DHT22;43472;48.980;9.646;2022-08-02T17:02:50;24.70;97.80
28725;DHT22;43472;48.980;9.646;2022-08-02T17:07:52;26.40;93.70
28725;DHT22;43472;48.980;9.646;2022-08-02T17:13:14;26.40;94.30
28725;DHT22;43472;48.980;9.646;2022-08-02T17:18:16;24.80;97.10
28725;DHT22;43472;48.980;9.646;2022-08-02T17:23:26;23.90;99.00
28725;DHT22;43472;48.980;9.646;2022-08-02T17:28:48;24.10;98.90
28725;DHT22;43472;48.980;9.646;2022-08-02T17:34:10;23.70;99.70
28725;DHT22;43472;48.980;9.646;2022-08-02T17:39:12;23.50;99.90
28725;DHT22;43472;48.980;9.646;2022-08-02T17:44:14;23.70;99.90
28725;DHT22;43472;48.980;9.646;2022-08-02T17:49:36;23.60;99.90
28725;DHT22;43472;48.980;9.646;2022-08-02T17:54:45;23.30;99.90
28725;DHT22;43472;48.980;9.646;2022-08-02T17:59:57;23.20;99.90
28725;DHT22;43472;48.980;9.646;2022-08-02T18:05:05;23.20;99.90
28725;DHT22;43472;48.980;9.646;2022-08-02T18:10:13;23.10;99.90
28725;DHT22;43472;48.980;9.646;2022-08-02T18:15:16;23.10;99.90
28725;DHT22;43472;48.980;9.646;2022-08-02T18:20:20;23.10;99.90
28725;DHT22;43472;48.980;9.646;2022-08-02T18:25:23;23.00;99.90
28725;DHT22;43472;48.980;9.646;2022-08-02T18:30:37;23.00;99.90
28725;DHT22;43472;48.980;9.646;2022-08-02T18:35:39;23.00;99.90
28725;DHT22;43472;48.980;9.646;2022-08-02T18:40:41;23.30;99.90
28725;DHT22;43472;48.980;9.646;2022-08-02T18:45:51;23.60;99.90
28725;DHT22;43472;48.980;9.646;2022-08-02T18:51:08;23.70;99.90
28725;DHT22;43472;48.980;9.646;2022-08-02T18:56:11;24.00;99.90
28725;DHT22;43472;48.980;9.646;2022-08-02T19:01:21;24.10;99.90
28725;DHT22;43472;48.980;9.646;2022-08-02T19:06:36;24.10;99.70
28725;DHT22;43472;48.980;9.646;2022-08-02T19:11:37;24.00;99.90
28725;DHT22;43472;48.980;9.646;2022-08-02T19:16:42;23.90;99.90
28725;DHT22;43472;48.980;9.646;2022-08-02T19:21:44;23.80;99.90
28725;DHT22;43472;48.980;9.646;2022-08-02T19:27:05;23.80;99.90
28725;DHT22;43472;48.980;9.646;2022-08-02T19:32:16;23.50;99.90
28725;DHT22;43472;48.980;9.646;2022-08-02T19:37:38;23.30;99.90
28725;DHT22;43472;48.980;9.646;2022-08-02T19:42:42;23.20;99.90
28725;DHT22;43472;48.980;9.646;2022-08-02T19:48:09;23.10;99.90
28725;DHT22;43472;48.980;9.646;2022-08-02T19:53:14;22.90;99.90
28725;DHT22;43472;48.980;9.646;2022-08-02T19:58:17;22.90;99.90
28725;DHT22;43472;48.980;9.646;2022-08-02T20:03:24;22.70;99.90
28725;DHT22;43472;48.980;9.646;2022-08-02T20:08:45;22.30;99.90
28725;DHT22;43472;48.980;9.646;2022-08-02T20:13:57;22.30;99.90
28725;DHT22;43472;48.980;9.646;2022-08-02T20:19:02;22.20;99.90
28725;DHT22;43472;48.980;9.646;2022-08-02T20:24:06;22.20;99.90
28725;DHT22;43472;48.980;9.646;2022-08-02T20:29:10;22.10;99.90
28725;DHT22;43472;48.980;9.646;2022-08-02T20:34:13;21.90;99.90
28725;DHT22;43472;48.980;9.646;2022-08-02T20:39:18;21.50;99.90
28725;DHT22;43472;48.980;9.646;2022-08-02T20:44:21;21.40;99.90
28725;DHT22;43472;48.980;9.646;2022-08-02T20:49:31;21.10;99.90
28725;DHT22;43472;48.980;9.646;2022-08-02T20:54:42;21.40;99.90
28725;DHT22;43472;48.980;9.646;2022-08-02T20:59:46;21.30;99.90
28725;DHT22;43472;48.980;9.646;2022-08-02T21:04:52;20.90;99.90
28725;DHT22;43472;48.980;9.646;2022-08-02T21:09:54;20.50;99.90
28725;DHT22;43472;48.980;9.646;2022-08-02T21:14:56;20.60;99.90
28725;DHT22;43472;48.980;9.646;2022-08-02T21:20:00;20.60;99.90
28725;DHT22;43472;48.980;9.646;2022-08-02T21:25:02;20.30;99.90
28725;DHT22;43472;48.980;9.646;2022-08-02T21:30:10;20.20;99.90
28725;DHT22;43472;48.980;9.646;2022-08-02T21:35:12;20.20;99.90
28725;DHT22;43472;48.980;9.646;2022-08-02T21:40:14;20.10;99.90
28725;DHT22;43472;48.980;9.646;2022-08-02T21:45:16;20.20;99.90
28725;DHT22;43472;48.980;9.646;2022-08-02T21:50:20;20.30;99.90
28725;DHT22;43472;48.980;9.646;2022-08-02T21:55:22;20.10;99.90
28725;DHT22;43472;48.980;9.646;2022-08-02T22:00:44;20.00;99.90
28725;DHT22;43472;48.980;9.646;2022-08-02T22:05:46;19.70;99.90
28725;DHT22;43472;48.980;9.646;2022-08-02T22:10:48;19.40;99.90
28725;DHT22;43472;48.980;9.646;2022-08-02T22:16:04;19.60;99.90
28725;DHT22;43472;48.980;9.646;2022-08-02T22:21:06;19.50;99.90
28725;DHT22;43472;48.980;9.646;2022-08-02T22:26:17;19.70;99.90
28725;DHT22;43472;48.980;9.646;2022-08-02T22:31:21;19.50;99.90
28725;DHT22;43472;48.980;9.646;2022-08-02T22:36:42;19.00;99.90
28725;DHT22;43472;48.980;9.646;2022-08-02T22:41:44;18.80;99.90
28725;DHT22;43472;48.980;9.646;2022-08-02T22:47:06;19.00;99.90
28725;DHT22;43472;48.980;9.646;2022-08-02T22:52:15;18.90;99.90
28725;DHT22;43472;48.980;9.646;2022-08-02T22:57:20;18.80;99.90
28725;DHT22;43472;48.980;9.646;2022-08-02T23:02:31;18.50;99.90
28725;DHT22;43472;48.980;9.646;2022-08-02T23:07:33;18.50;99.90
28725;DHT22;43472;48.980;9.646;2022-08-02T23:12:39;18.10;99.90
28725;DHT22;43472;48.980;9.646;2022-08-02T23:17:41;18.20;99.90
28725;DHT22;43472;48.980;9.646;2022-08-02T23:23:01;18.40;99.90
28725;DHT22;43472;48.980;9.646;2022-08-02T23:28:12;18.20;99.90
28725;DHT22;43472;48.980;9.646;2022-08-02T23:33:14;17.90;99.90
28725;DHT22;43472;48.980;9.646;2022-08-02T23:38:16;17.90;99.90
28725;DHT22;43472;48.980;9.646;2022-08-02T23:43:17;18.00;99.90
28725;DHT22;43472;48.980;9.646;2022-08-02T23:48:19;17.70;99.90
28725;DHT22;43472;48.980;9.646;2022-08-02T23:53:21;18.00;99.90
28725;DHT22;43472;48.980;9.646;2022-08-02T23:58:23;18.00;99.90
